createdAt,value
2018-01-26T00:01:16.495Z,71.60
2018-01-26T00:03:44.830Z,71.80
2018-01-26T00:06:13.140Z,71.96
2018-01-26T00:08:41.482Z,71.94
2018-01-26T00:11:09.791Z,72.05
2018-01-26T00:13:38.162Z,72.10
2018-01-26T00:16:06.478Z,72.07
2018-01-26T00:18:35.538Z,71.61
2018-01-26T00:21:03.882Z,71.58
2018-01-26T00:23:32.190Z,71.68
2018-01-26T00:26:00.538Z,71.60
2018-01-26T00:28:29.605Z,71.66
2018-01-26T00:30:58.714Z,71.84
2018-01-26T00:33:27.050Z,71.82
2018-01-26T00:35:55.410Z,71.61
2018-01-26T00:38:23.718Z,71.76
2018-01-26T00:40:52.068Z,72.18
2018-01-26T00:43:20.550Z,72.20
2018-01-26T00:45:49.658Z,72.08
2018-01-26T00:48:18.008Z,72.10
2018-01-26T00:50:46.344Z,72.24
2018-01-26T00:53:15.452Z,72.37
2018-01-26T00:55:43.773Z,72.41
2018-01-26T00:58:12.137Z,72.44
2018-01-26T01:00:41.220Z,72.54
2018-01-26T01:03:09.521Z,72.76
2018-01-26T01:05:37.871Z,72.94
2018-01-26T01:08:06.185Z,73.17
2018-01-26T01:10:34.534Z,72.59
2018-01-26T01:13:02.865Z,72.71
2018-01-26T01:15:31.940Z,72.88
2018-01-26T01:18:00.269Z,72.59
2018-01-26T01:20:28.625Z,72.24
2018-01-26T01:22:57.713Z,72.10
2018-01-26T01:25:26.815Z,72.14
2018-01-26T01:27:55.165Z,72.33
2018-01-26T01:30:23.508Z,72.33
2018-01-26T01:32:51.821Z,72.35
2018-01-26T01:35:20.146Z,72.45
2018-01-26T01:37:48.476Z,72.46
2018-01-26T01:40:17.558Z,72.39
2018-01-26T01:42:45.905Z,72.25
2018-01-26T01:45:14.213Z,72.38
2018-01-26T01:47:42.633Z,72.04
2018-01-26T01:50:11.337Z,71.98
2018-01-26T01:52:39.666Z,71.91
2018-01-26T01:55:08.229Z,71.88
2018-01-26T01:57:36.931Z,71.75
2018-01-26T02:00:05.642Z,71.82
2018-01-26T02:02:35.503Z,71.75
2018-01-26T02:05:03.867Z,71.70
2018-01-26T02:07:32.209Z,71.64
2018-01-26T02:10:01.329Z,71.35
2018-01-26T02:12:29.645Z,71.52
2018-01-26T02:14:57.985Z,71.53
2018-01-26T02:17:26.343Z,71.51
2018-01-26T02:19:55.466Z,71.37
2018-01-26T02:22:23.776Z,71.72
2018-01-26T02:24:52.125Z,71.62
2018-01-26T02:27:21.249Z,71.75
2018-01-26T02:29:49.604Z,71.77
2018-01-26T02:32:17.969Z,71.79
2018-01-26T02:34:46.325Z,71.95
2018-01-26T02:37:14.665Z,71.83
2018-01-26T02:39:43.010Z,71.82
2018-01-26T02:42:11.342Z,71.77
2018-01-26T02:44:40.467Z,71.75
2018-01-26T02:47:08.785Z,71.74
2018-01-26T02:49:37.107Z,71.74
2018-01-26T02:52:05.452Z,71.88
2018-01-26T02:54:34.593Z,71.93
2018-01-26T02:57:02.921Z,71.99
2018-01-26T02:59:31.283Z,71.95
2018-01-26T03:01:59.597Z,71.79
2018-01-26T03:04:28.724Z,71.91
2018-01-26T03:06:57.049Z,71.98
2018-01-26T03:09:25.415Z,72.17
2018-01-26T03:11:53.728Z,72.00
2018-01-26T03:14:22.817Z,72.16
2018-01-26T03:16:51.928Z,72.29
2018-01-26T03:19:20.240Z,72.34
2018-01-26T03:21:48.553Z,72.31
2018-01-26T03:24:16.913Z,72.42
2018-01-26T03:26:46.076Z,72.51
2018-01-26T03:29:15.558Z,72.56
2018-01-26T03:31:44.640Z,72.61
2018-01-26T03:34:13.745Z,72.58
2018-01-26T03:36:42.901Z,72.35
2018-01-26T03:39:11.604Z,72.48
2018-01-26T03:41:40.360Z,72.41
2018-01-26T03:44:08.713Z,72.05
2018-01-26T03:46:37.045Z,71.90
2018-01-26T03:49:05.456Z,71.77
2018-01-26T03:51:33.784Z,71.62
2018-01-26T03:54:02.083Z,71.67
2018-01-26T03:56:30.433Z,71.68
2018-01-26T03:58:59.166Z,71.46
2018-01-26T04:01:28.252Z,71.41
2018-01-26T04:03:57.364Z,71.42
2018-01-26T04:06:27.040Z,71.34
2018-01-26T04:08:56.130Z,71.43
2018-01-26T04:11:24.884Z,71.45
2018-01-26T04:13:53.640Z,71.47
2018-01-26T04:16:21.942Z,71.37
2018-01-26T04:18:50.252Z,71.21
2018-01-26T04:21:18.607Z,71.11
2018-01-26T04:23:46.968Z,70.79
2018-01-26T04:26:15.280Z,70.28
2018-01-26T04:28:43.596Z,70.45
2018-01-26T04:31:12.724Z,70.48
2018-01-26T04:33:41.064Z,70.34
2018-01-26T04:36:10.137Z,70.27
2018-01-26T04:38:38.493Z,70.25
2018-01-26T04:41:06.840Z,70.32
2018-01-26T04:43:35.196Z,70.29
2018-01-26T04:46:03.520Z,70.14
2018-01-26T04:48:31.872Z,69.75
2018-01-26T04:51:00.177Z,69.56
2018-01-26T04:53:28.524Z,69.63
2018-01-26T04:55:56.828Z,70.07
2018-01-26T04:58:25.166Z,70.35
2018-01-26T05:00:53.492Z,70.35
2018-01-26T05:03:21.836Z,70.42
2018-01-26T05:05:51.152Z,70.87
2018-01-26T05:08:19.475Z,70.95
2018-01-26T05:10:48.562Z,70.93
2018-01-26T05:13:17.714Z,71.17
2018-01-26T05:15:46.024Z,71.19
2018-01-26T05:18:14.352Z,71.30
2018-01-26T05:20:42.704Z,71.24
2018-01-26T05:23:11.787Z,71.23
2018-01-26T05:25:40.144Z,71.01
2018-01-26T05:28:08.452Z,71.04
2018-01-26T05:30:37.571Z,71.00
2018-01-26T05:33:05.895Z,71.06
2018-01-26T05:35:34.252Z,71.15
2018-01-26T05:38:02.548Z,71.09
2018-01-26T05:40:30.885Z,71.14
2018-01-26T05:42:59.220Z,71.24
2018-01-26T05:45:27.582Z,71.29
2018-01-26T05:47:55.907Z,71.27
2018-01-26T05:50:24.283Z,71.35
2018-01-26T05:52:52.603Z,71.32
2018-01-26T05:55:20.914Z,71.21
2018-01-26T05:57:49.255Z,71.23
2018-01-26T06:00:17.578Z,70.95
2018-01-26T06:02:46.703Z,70.86
2018-01-26T06:05:14.998Z,70.74
2018-01-26T06:07:43.307Z,70.76
2018-01-26T06:10:11.660Z,70.50
2018-01-26T06:12:40.037Z,70.71
2018-01-26T06:15:08.345Z,70.54
2018-01-26T06:17:37.285Z,70.54
2018-01-26T06:20:06.507Z,70.40
2018-01-26T06:22:34.851Z,70.46
2018-01-26T06:25:03.176Z,70.30
2018-01-26T06:27:31.533Z,70.18
2018-01-26T06:29:59.867Z,70.25
2018-01-26T06:32:28.209Z,70.25
2018-01-26T06:34:56.539Z,70.38
2018-01-26T06:37:24.929Z,70.15
2018-01-26T06:39:53.263Z,70.06
2018-01-26T06:42:22.725Z,69.86
2018-01-26T06:44:51.062Z,69.80
2018-01-26T06:47:19.407Z,69.78
2018-01-26T06:49:47.769Z,69.87
2018-01-26T06:52:16.090Z,69.84
2018-01-26T06:54:44.467Z,69.77
2018-01-26T06:57:12.804Z,69.56
2018-01-26T06:59:41.910Z,69.53
2018-01-26T07:02:10.241Z,69.57
2018-01-26T07:04:38.557Z,69.60
2018-01-26T07:07:06.903Z,69.61
2018-01-26T07:09:35.714Z,69.76
2018-01-26T07:12:04.058Z,69.60
2018-01-26T07:14:33.140Z,69.59
2018-01-26T07:17:01.514Z,69.50
2018-01-26T07:19:29.823Z,69.47
2018-01-26T07:21:58.139Z,69.60
2018-01-26T07:24:26.478Z,69.37
2018-01-26T07:26:54.780Z,69.31
2018-01-26T07:29:23.123Z,69.16
2018-01-26T07:31:51.456Z,69.04
2018-01-26T07:34:20.573Z,69.19
2018-01-26T07:36:48.905Z,68.98
2018-01-26T07:39:17.272Z,68.80
2018-01-26T07:41:45.584Z,68.71
2018-01-26T07:44:14.659Z,68.33
2018-01-26T07:46:43.002Z,68.46
2018-01-26T07:49:11.354Z,68.01
2018-01-26T07:51:39.670Z,67.77
2018-01-26T07:54:08.034Z,67.69
2018-01-26T07:56:36.351Z,67.40
2018-01-26T07:59:04.682Z,67.42
2018-01-26T08:01:33.926Z,67.21
2018-01-26T08:04:02.292Z,67.22
2018-01-26T08:06:30.645Z,67.37
2018-01-26T08:08:58.980Z,67.44
2018-01-26T08:11:28.937Z,67.13
2018-01-26T08:13:57.275Z,67.28
2018-01-26T08:16:26.376Z,67.33
2018-01-26T08:18:54.722Z,67.45
2018-01-26T08:21:23.029Z,67.51
2018-01-26T08:23:51.384Z,67.44
2018-01-26T08:26:20.460Z,67.77
2018-01-26T08:28:48.836Z,68.07
2018-01-26T08:31:17.158Z,68.24
2018-01-26T08:33:45.523Z,68.08
2018-01-26T08:36:14.638Z,67.93
2018-01-26T08:38:42.944Z,67.43
2018-01-26T08:41:11.348Z,67.17
2018-01-26T08:43:39.658Z,67.02
2018-01-26T08:46:08.765Z,66.92
2018-01-26T08:48:37.114Z,66.56
2018-01-26T08:51:06.228Z,66.16
2018-01-26T08:53:34.546Z,66.44
2018-01-26T08:56:02.915Z,66.34
2018-01-26T08:58:31.251Z,66.14
2018-01-26T09:01:00.366Z,65.91
2018-01-26T09:03:28.666Z,65.74
2018-01-26T09:05:57.011Z,65.23
2018-01-26T09:08:25.308Z,64.84
2018-01-26T09:10:53.637Z,64.24
2018-01-26T09:13:22.926Z,64.53
2018-01-26T09:15:51.285Z,63.87
2018-01-26T09:18:19.626Z,63.63
2018-01-26T09:20:47.971Z,62.89
2018-01-26T09:23:16.299Z,63.27
2018-01-26T09:25:44.624Z,63.28
2018-01-26T09:28:12.982Z,62.57
2018-01-26T09:30:41.295Z,62.26
2018-01-26T09:33:09.672Z,61.71
2018-01-26T09:35:38.738Z,61.87
2018-01-26T09:38:07.081Z,61.72
2018-01-26T09:40:35.458Z,62.38
2018-01-26T09:43:03.782Z,62.30
2018-01-26T09:45:32.127Z,61.27
2018-01-26T09:48:00.450Z,61.44
2018-01-26T09:50:29.560Z,61.65
2018-01-26T09:52:57.896Z,61.19
2018-01-26T09:55:27.352Z,61.14
2018-01-26T09:57:55.712Z,60.84
2018-01-26T10:00:24.832Z,60.36
2018-01-26T10:02:53.139Z,59.36
2018-01-26T10:05:21.503Z,59.60
2018-01-26T10:07:49.815Z,59.47
2018-01-26T10:10:18.117Z,59.99
2018-01-26T10:12:47.219Z,59.99
2018-01-26T10:15:15.532Z,59.87
2018-01-26T10:17:43.891Z,60.23
2018-01-26T10:20:12.238Z,60.19
2018-01-26T10:22:41.365Z,60.12
2018-01-26T10:25:09.685Z,59.80
2018-01-26T10:27:38.034Z,59.17
2018-01-26T10:30:06.351Z,59.23
2018-01-26T10:32:35.494Z,59.16
2018-01-26T10:35:03.812Z,58.47
2018-01-26T10:37:32.137Z,58.90
2018-01-26T10:40:00.481Z,58.94
2018-01-26T10:42:29.575Z,58.77
2018-01-26T10:44:58.711Z,59.01
2018-01-26T10:47:27.028Z,59.14
2018-01-26T10:49:55.387Z,59.02
2018-01-26T10:52:23.697Z,59.42
2018-01-26T10:54:52.021Z,59.55
2018-01-26T10:57:20.377Z,59.37
2018-01-26T10:59:48.701Z,59.15
2018-01-26T11:02:17.065Z,58.81
2018-01-26T11:04:45.409Z,58.61
2018-01-26T11:07:14.550Z,57.99
2018-01-26T11:09:42.993Z,57.50
2018-01-26T11:12:11.413Z,58.42
2018-01-26T11:14:39.925Z,58.08
2018-01-26T11:17:08.279Z,58.79
2018-01-26T11:19:36.653Z,59.24
2018-01-26T11:22:04.973Z,58.40
2018-01-26T11:24:34.092Z,58.39
2018-01-26T11:27:02.446Z,58.34
2018-01-26T11:29:30.789Z,58.31
2018-01-26T11:31:59.198Z,58.26
2018-01-26T11:34:28.331Z,58.99
2018-01-26T11:36:56.651Z,59.63
2018-01-26T11:39:24.977Z,60.18
2018-01-26T11:41:53.336Z,60.75
2018-01-26T11:44:21.729Z,60.72
2018-01-26T11:46:50.085Z,60.77
2018-01-26T11:49:19.188Z,59.99
2018-01-26T11:51:47.542Z,60.13
2018-01-26T11:54:15.868Z,60.28
2018-01-26T11:56:44.241Z,60.29
2018-01-26T11:59:12.600Z,59.89
2018-01-26T12:01:41.123Z,60.69
2018-01-26T12:04:09.673Z,61.21
2018-01-26T12:06:39.184Z,60.59
2018-01-26T12:09:07.562Z,60.30
2018-01-26T12:11:35.984Z,60.34
2018-01-26T12:14:04.298Z,60.35
2018-01-26T12:16:32.619Z,60.50
2018-01-26T12:19:00.974Z,60.94
2018-01-26T12:21:29.339Z,60.88
2018-01-26T12:23:57.704Z,61.18
2018-01-26T12:26:26.808Z,61.72
2018-01-26T12:28:55.176Z,61.85
2018-01-26T12:31:24.276Z,61.66
2018-01-26T12:33:53.394Z,61.48
2018-01-26T12:36:21.756Z,62.43
2018-01-26T12:38:50.122Z,62.36
2018-01-26T12:41:18.476Z,62.45
2018-01-26T12:43:46.840Z,62.18
2018-01-26T12:46:15.201Z,62.37
2018-01-26T12:48:43.564Z,62.80
2018-01-26T12:51:11.900Z,63.78
2018-01-26T12:53:41.022Z,65.22
2018-01-26T12:56:09.352Z,66.08
2018-01-26T12:58:37.740Z,65.76
2018-01-26T13:01:06.164Z,66.25
2018-01-26T13:03:34.522Z,66.31
2018-01-26T13:06:03.613Z,65.99
2018-01-26T13:08:32.738Z,66.32
2018-01-26T13:11:01.079Z,66.47
2018-01-26T13:13:30.190Z,66.58
2018-01-26T13:15:58.540Z,67.48
2018-01-26T13:18:26.852Z,66.96
2018-01-26T13:20:55.213Z,67.36
2018-01-26T13:23:24.309Z,67.48
2018-01-26T13:25:53.431Z,67.59
2018-01-26T13:28:21.807Z,67.53
2018-01-26T13:30:50.160Z,68.26
2018-01-26T13:33:19.268Z,69.11
2018-01-26T13:35:47.618Z,69.31
2018-01-26T13:38:16.722Z,69.58
2018-01-26T13:40:45.847Z,69.96
2018-01-26T13:43:14.202Z,70.03
2018-01-26T13:45:43.304Z,69.97
2018-01-26T13:48:12.422Z,71.23
2018-01-26T13:50:40.730Z,71.21
2018-01-26T13:53:09.074Z,71.20
2018-01-26T13:55:37.430Z,71.32
2018-01-26T13:58:06.537Z,71.41
2018-01-26T14:00:34.927Z,72.08
2018-01-26T14:03:03.250Z,72.47
2018-01-26T14:05:31.605Z,72.73
2018-01-26T14:07:59.961Z,73.20
2018-01-26T14:10:28.279Z,73.75
2018-01-26T14:12:56.605Z,73.96
2018-01-26T14:15:24.966Z,74.24
2018-01-26T14:17:54.791Z,74.36
2018-01-26T14:20:23.136Z,75.38
2018-01-26T14:22:51.499Z,75.41
2018-01-26T14:25:19.827Z,75.10
2018-01-26T14:27:48.175Z,74.62
2018-01-26T14:30:17.327Z,74.58
2018-01-26T14:32:45.646Z,75.02
2018-01-26T14:35:14.783Z,74.84
2018-01-26T14:37:43.096Z,75.00
2018-01-26T14:40:11.423Z,75.96
2018-01-26T14:42:39.764Z,76.15
2018-01-26T14:45:08.075Z,76.28
2018-01-26T14:47:36.421Z,76.42
2018-01-26T14:50:04.729Z,76.42
2018-01-26T14:52:33.062Z,76.33
2018-01-26T14:55:01.369Z,76.52
2018-01-26T14:57:30.531Z,76.80
2018-01-26T14:59:59.284Z,76.95
2018-01-26T15:02:27.597Z,77.30
2018-01-26T15:04:55.970Z,77.61
2018-01-26T15:07:24.287Z,77.98
2018-01-26T15:09:53.373Z,78.40
2018-01-26T15:12:22.483Z,78.91
2018-01-26T15:14:50.821Z,79.29
2018-01-26T15:17:19.160Z,79.96
2018-01-26T15:19:47.848Z,80.70
2018-01-26T15:22:16.266Z,81.27
2018-01-26T15:24:45.391Z,82.09
2018-01-26T15:27:13.747Z,82.70
2018-01-26T15:29:42.902Z,83.31
2018-01-26T15:32:11.274Z,83.60
2018-01-26T15:34:40.073Z,83.87
2018-01-26T15:37:08.452Z,84.11
2018-01-26T15:39:36.777Z,84.12
2018-01-26T15:42:05.170Z,84.21
2018-01-26T15:44:33.544Z,84.43
2018-01-26T15:47:01.929Z,84.67
2018-01-26T15:49:30.361Z,84.68
2018-01-26T15:51:59.167Z,84.70
2018-01-26T15:54:27.634Z,84.67
2018-01-26T15:56:55.974Z,84.77
2018-01-26T15:59:24.336Z,84.86
2018-01-26T16:01:54.605Z,85.02
2018-01-26T16:04:23.239Z,85.16
2018-01-26T16:06:52.150Z,85.12
2018-01-26T16:09:20.514Z,85.16
2018-01-26T16:11:56.626Z,85.26
2018-01-26T16:14:24.944Z,85.32
2018-01-26T16:16:54.025Z,85.19
2018-01-26T16:19:22.580Z,85.31
2018-01-26T16:21:50.968Z,85.50
2018-01-26T16:24:19.451Z,85.55
2018-01-26T16:26:47.793Z,85.57
2018-01-26T16:29:16.181Z,85.39
2018-01-26T16:31:44.899Z,85.51
2018-01-26T16:34:14.095Z,85.39
2018-01-26T16:36:43.325Z,85.38
2018-01-26T16:39:11.766Z,85.36
2018-01-26T16:41:40.928Z,85.20
2018-01-26T16:44:09.251Z,85.09
2018-01-26T16:46:38.642Z,84.97
2018-01-26T16:49:08.823Z,84.99
2018-01-26T16:51:45.072Z,84.88
2018-01-26T16:54:18.452Z,84.64
2018-01-26T16:56:57.244Z,84.69
2018-01-26T16:59:26.428Z,84.69
2018-01-26T17:01:54.753Z,84.67
2018-01-26T17:04:23.114Z,84.63
2018-01-26T17:06:51.876Z,84.43
2018-01-26T17:09:20.278Z,84.48
2018-01-26T17:11:49.494Z,84.43
2018-01-26T17:14:17.825Z,84.43
2018-01-26T17:16:46.183Z,84.42
2018-01-26T17:19:16.885Z,84.33
2018-01-26T17:21:45.366Z,84.30
2018-01-26T17:24:14.843Z,84.12
2018-01-26T17:26:43.197Z,84.08
2018-01-26T17:29:11.555Z,84.20
2018-01-26T17:31:39.886Z,84.12
2018-01-26T17:34:09.062Z,84.10
2018-01-26T17:36:37.410Z,84.05
2018-01-26T17:39:05.793Z,84.11
2018-01-26T17:41:34.150Z,83.98
2018-01-26T17:44:03.240Z,83.86
2018-01-26T17:46:31.619Z,83.67
2018-01-26T17:49:00.717Z,83.62
2018-01-26T17:51:29.132Z,83.46
2018-01-26T17:53:57.470Z,83.47
2018-01-26T17:56:26.566Z,83.47
2018-01-26T17:58:55.144Z,83.58
2018-01-26T18:01:23.463Z,83.64
2018-01-26T18:03:51.826Z,83.64
2018-01-26T18:06:20.149Z,83.59
2018-01-26T18:08:49.276Z,83.56
2018-01-26T18:11:17.597Z,83.61
2018-01-26T18:13:45.963Z,83.71
2018-01-26T18:16:14.360Z,83.77
2018-01-26T18:18:43.485Z,83.59
2018-01-26T18:21:11.829Z,83.60
2018-01-26T18:23:40.300Z,83.69
2018-01-26T18:26:09.595Z,83.75
2018-01-26T18:28:38.085Z,83.73
2018-01-26T18:31:07.918Z,83.72
2018-01-26T18:33:36.283Z,83.78
2018-01-26T18:36:05.465Z,83.84
2018-01-26T18:38:34.785Z,83.92
2018-01-26T18:41:03.366Z,84.01
2018-01-26T18:43:32.524Z,84.08
2018-01-26T18:46:00.929Z,84.08
2018-01-26T18:48:30.154Z,84.03
2018-01-26T18:50:58.593Z,84.18
2018-01-26T18:53:28.153Z,84.19
2018-01-26T18:55:56.681Z,84.17
2018-01-26T18:58:25.128Z,84.22
2018-01-26T19:00:54.944Z,84.16
2018-01-26T19:03:23.437Z,84.12
2018-01-26T19:05:51.980Z,84.19
2018-01-26T19:08:22.026Z,84.24
2018-01-26T19:10:50.664Z,84.17
2018-01-26T19:13:18.991Z,84.19
2018-01-26T19:15:47.358Z,84.22
2018-01-26T19:18:16.149Z,84.27
2018-01-26T19:20:44.472Z,84.36
2018-01-26T19:23:12.800Z,84.45
2018-01-26T19:25:41.474Z,84.42
2018-01-26T19:28:09.880Z,84.55
2018-01-26T19:30:40.233Z,84.74
2018-01-26T19:33:08.920Z,84.46
2018-01-26T19:35:37.292Z,84.54
2018-01-26T19:38:05.623Z,84.61
2018-01-26T19:40:34.183Z,84.64
2018-01-26T19:43:03.948Z,84.65
2018-01-26T19:45:32.386Z,84.73
2018-01-26T19:48:01.465Z,84.76
2018-01-26T19:50:30.589Z,84.76
2018-01-26T19:52:58.954Z,84.75
2018-01-26T19:55:27.467Z,84.63
2018-01-26T19:57:55.811Z,84.68
2018-01-26T20:00:24.139Z,84.72
2018-01-26T20:02:52.508Z,84.71
2018-01-26T20:05:44.056Z,84.74
2018-01-26T20:08:28.853Z,84.79
2018-01-26T20:10:57.203Z,84.81
2018-01-26T20:13:28.666Z,84.84
2018-01-26T20:15:58.003Z,84.76
2018-01-26T20:18:26.597Z,84.64
2018-01-26T20:20:55.859Z,84.66
2018-01-26T20:23:27.009Z,84.66
2018-01-26T20:25:55.562Z,84.66
2018-01-26T20:28:24.187Z,84.69
2018-01-26T20:30:52.838Z,84.79
2018-01-26T20:33:22.828Z,84.82
2018-01-26T20:35:51.177Z,84.80
2018-01-26T20:38:20.344Z,84.86
2018-01-26T20:40:48.691Z,84.90
2018-01-26T20:43:17.072Z,84.86
2018-01-26T20:45:45.421Z,84.84
2018-01-26T20:48:14.332Z,84.87
2018-01-26T20:50:42.690Z,84.76
2018-01-26T20:53:11.055Z,84.66
2018-01-26T20:55:40.305Z,84.67
2018-01-26T20:58:09.427Z,84.69
2018-01-26T21:00:37.818Z,84.63
2018-01-26T21:03:06.144Z,84.59
2018-01-26T21:05:34.538Z,84.66
2018-01-26T21:08:04.537Z,84.65
2018-01-26T21:10:32.884Z,84.57
2018-01-26T21:13:01.304Z,84.71
2018-01-26T21:15:30.446Z,84.76
2018-01-26T21:17:58.787Z,84.79
2018-01-26T21:20:27.547Z,84.75
2018-01-26T21:22:55.872Z,84.70
2018-01-26T21:25:24.236Z,84.78
2018-01-26T21:27:53.336Z,84.89
2018-01-26T21:30:22.459Z,85.02
2018-01-26T21:32:50.799Z,85.11
2018-01-26T21:35:20.672Z,85.17
2018-01-26T21:37:49.046Z,85.15
2018-01-26T21:40:17.474Z,85.26
2018-01-26T21:42:46.558Z,85.42
2018-01-26T21:45:15.970Z,85.42
2018-01-26T21:47:45.086Z,85.46
2018-01-26T21:50:14.457Z,85.46
2018-01-26T21:52:43.591Z,85.40
2018-01-26T21:55:12.360Z,85.41
2018-01-26T21:57:40.808Z,85.46
2018-01-26T22:00:09.176Z,85.33
2018-01-26T22:02:37.516Z,85.34
2018-01-26T22:05:11.345Z,85.41
2018-01-26T22:07:39.662Z,85.66
2018-01-26T22:10:10.592Z,85.67
2018-01-26T22:12:38.938Z,85.53
2018-01-26T22:15:07.245Z,85.57
2018-01-26T22:17:35.594Z,85.56
2018-01-26T22:20:04.015Z,85.64
2018-01-26T22:22:33.196Z,85.65
2018-01-26T22:25:01.506Z,85.65
2018-01-26T22:27:29.904Z,85.62
2018-01-26T22:29:58.251Z,85.72
2018-01-26T22:32:27.472Z,85.78
2018-01-26T22:34:56.199Z,85.81
2018-01-26T22:37:24.553Z,85.88
2018-01-26T22:39:52.886Z,85.90
2018-01-26T22:42:22.861Z,85.98
2018-01-26T22:44:51.235Z,86.03
2018-01-26T22:47:19.559Z,86.08
2018-01-26T22:49:48.673Z,86.02
2018-01-26T22:52:16.990Z,86.00
2018-01-26T22:54:45.359Z,85.96
2018-01-26T22:57:13.683Z,85.96
2018-01-26T22:59:42.819Z,85.94
2018-01-26T23:02:11.121Z,85.98
2018-01-26T23:04:39.489Z,86.05
2018-01-26T23:07:07.809Z,86.12
2018-01-26T23:09:36.946Z,86.14
2018-01-26T23:12:05.317Z,86.15
2018-01-26T23:14:34.103Z,86.22
2018-01-26T23:17:02.463Z,86.30
2018-01-26T23:19:30.797Z,86.28
2018-01-26T23:21:59.153Z,86.31
2018-01-26T23:24:27.462Z,86.32
2018-01-26T23:26:55.792Z,86.34
2018-01-26T23:29:24.133Z,86.34
2018-01-26T23:31:52.463Z,86.32
2018-01-26T23:34:20.815Z,86.25
2018-01-26T23:36:53.466Z,86.26
2018-01-26T23:39:22.599Z,86.24
2018-01-26T23:41:50.941Z,86.13
2018-01-26T23:44:20.018Z,85.87
2018-01-26T23:46:48.375Z,85.72
2018-01-26T23:49:16.670Z,85.64
2018-01-26T23:51:45.032Z,85.52
2018-01-26T23:54:13.406Z,85.62
2018-01-26T23:56:41.723Z,85.65
2018-01-26T23:59:10.438Z,85.66
